Terminal Aerodrome Forecast
Issued by NWS

Home | Current Version | Previous Version | Text Only | Print | Product List | Glossary On
Versions: 1 2 3 4 5 6 7 8 9 10 11 12 13 14 15 16 17
000
FTUS46 KSGX 200600 RRA
TAFONT
TAF
KONT 200605Z 2006/2112 VRB04KT P6SM SKC
     FM201000 VRB04KT 4SM BR BKN015
     FM201700 VRB04KT 6SM BR FEW015
     FM202100 26010KT P6SM SKC
     FM210400 VRB04KT P6SM SCT020
     FM210700 VRB04KT P6SM BKN020=

USA.gov is the U.S. government's official web portal to all federal, state and local government web resources and services.